sensor_id;sensor_type;location;lat;lon;timestamp;pressure;altitude;pressure_sealevel;temperature;humidity
86104;BME280;76727;51.216;17.394;2024-02-23T00:01:08;97446.28;;;7.82;100.00
86104;BME280;76727;51.216;17.394;2024-02-23T00:04:26;97433.81;;;7.86;100.00
86104;BME280;76727;51.216;17.394;2024-02-23T00:07:27;97435.41;;;7.88;100.00
86104;BME280;76727;51.216;17.394;2024-02-23T00:10:28;97421.38;;;7.89;100.00
86104;BME280;76727;51.216;17.394;2024-02-23T00:13:31;97425.84;;;7.87;100.00
86104;BME280;76727;51.216;17.394;2024-02-23T00:16:41;97426.50;;;7.91;100.00
86104;BME280;76727;51.216;17.394;2024-02-23T00:19:45;97422.28;;;7.88;100.00
86104;BME280;76727;51.216;17.394;2024-02-23T00:22:46;97425.78;;;7.89;100.00
86104;BME280;76727;51.216;17.394;2024-02-23T00:25:48;97425.69;;;7.90;100.00
86104;BME280;76727;51.216;17.394;2024-02-23T00:28:49;97433.81;;;7.86;100.00
86104;BME280;76727;51.216;17.394;2024-02-23T00:31:54;97435.06;;;7.95;100.00
86104;BME280;76727;51.216;17.394;2024-02-23T00:34:57;97441.31;;;7.92;100.00
86104;BME280;76727;51.216;17.394;2024-02-23T00:37:58;97452.94;;;7.88;100.00
86104;BME280;76727;51.216;17.394;2024-02-23T00:40:59;97461.38;;;7.93;100.00
86104;BME280;76727;51.216;17.394;2024-02-23T00:44:00;97454.72;;;8.02;100.00
86104;BME280;76727;51.216;17.394;2024-02-23T00:47:04;97457.19;;;8.19;100.00
86104;BME280;76727;51.216;17.394;2024-02-23T00:50:07;97455.88;;;8.26;100.00
86104;BME280;76727;51.216;17.394;2024-02-23T00:53:08;97450.34;;;8.31;100.00
86104;BME280;76727;51.216;17.394;2024-02-23T00:56:09;97460.00;;;8.31;100.00
86104;BME280;76727;51.216;17.394;2024-02-23T00:59:10;97462.44;;;8.34;100.00
86104;BME280;76727;51.216;17.394;2024-02-23T01:02:14;97471.81;;;8.38;100.00
86104;BME280;76727;51.216;17.394;2024-02-23T01:05:15;97466.47;;;8.39;100.00
86104;BME280;76727;51.216;17.394;2024-02-23T01:08:17;97457.56;;;8.27;100.00
86104;BME280;76727;51.216;17.394;2024-02-23T01:11:19;97450.63;;;8.41;100.00
86104;BME280;76727;51.216;17.394;2024-02-23T01:14:25;97446.81;;;8.32;100.00
86104;BME280;76727;51.216;17.394;2024-02-23T01:17:30;97457.00;;;8.37;100.00
86104;BME280;76727;51.216;17.394;2024-02-23T01:20:31;97448.66;;;8.30;100.00
86104;BME280;76727;51.216;17.394;2024-02-23T01:23:32;97437.03;;;8.34;100.00
86104;BME280;76727;51.216;17.394;2024-02-23T01:26:33;97440.16;;;8.55;100.00
86104;BME280;76727;51.216;17.394;2024-02-23T01:29:34;97442.56;;;8.44;100.00
86104;BME280;76727;51.216;17.394;2024-02-23T01:32:36;97445.38;;;8.41;100.00
86104;BME280;76727;51.216;17.394;2024-02-23T01:35:37;97446.56;;;8.51;100.00
86104;BME280;76727;51.216;17.394;2024-02-23T01:38:38;97452.06;;;8.47;100.00
86104;BME280;76727;51.216;17.394;2024-02-23T01:41:42;97459.06;;;8.32;100.00
86104;BME280;76727;51.216;17.394;2024-02-23T01:44:48;97453.91;;;8.45;100.00
86104;BME280;76727;51.216;17.394;2024-02-23T01:47:50;97453.47;;;8.52;100.00
86104;BME280;76727;51.216;17.394;2024-02-23T01:50:52;97435.50;;;8.61;100.00
86104;BME280;76727;51.216;17.394;2024-02-23T01:53:54;97436.59;;;8.42;100.00
86104;BME280;76727;51.216;17.394;2024-02-23T01:56:56;97439.75;;;8.33;100.00
86104;BME280;76727;51.216;17.394;2024-02-23T01:59:58;97434.97;;;8.25;100.00
86104;BME280;76727;51.216;17.394;2024-02-23T02:03:02;97432.94;;;8.45;100.00
86104;BME280;76727;51.216;17.394;2024-02-23T02:06:04;97436.59;;;8.56;100.00
86104;BME280;76727;51.216;17.394;2024-02-23T02:09:05;97428.81;;;8.55;100.00
86104;BME280;76727;51.216;17.394;2024-02-23T02:12:08;97420.31;;;8.51;100.00
86104;BME280;76727;51.216;17.394;2024-02-23T02:15:10;97406.06;;;8.55;100.00
86104;BME280;76727;51.216;17.394;2024-02-23T02:18:13;97394.47;;;8.72;100.00
86104;BME280;76727;51.216;17.394;2024-02-23T02:21:14;97408.25;;;8.90;100.00
86104;BME280;76727;51.216;17.394;2024-02-23T02:24:16;97410.84;;;8.90;100.00
86104;BME280;76727;51.216;17.394;2024-02-23T02:27:18;97415.06;;;8.93;100.00
86104;BME280;76727;51.216;17.394;2024-02-23T02:30:20;97417.78;;;8.91;100.00
86104;BME280;76727;51.216;17.394;2024-02-23T02:33:23;97468.75;;;8.60;100.00
86104;BME280;76727;51.216;17.394;2024-02-23T02:36:24;97460.47;;;8.37;100.00
86104;BME280;76727;51.216;17.394;2024-02-23T02:39:27;97453.72;;;8.19;100.00
86104;BME280;76727;51.216;17.394;2024-02-23T02:42:28;97456.81;;;8.25;100.00
86104;BME280;76727;51.216;17.394;2024-02-23T02:45:29;97450.53;;;8.14;100.00
86104;BME280;76727;51.216;17.394;2024-02-23T02:48:33;97462.63;;;8.16;100.00
86104;BME280;76727;51.216;17.394;2024-02-23T02:51:34;97472.44;;;8.13;100.00
86104;BME280;76727;51.216;17.394;2024-02-23T02:54:35;97472.50;;;7.97;100.00
86104;BME280;76727;51.216;17.394;2024-02-23T02:57:39;97473.28;;;7.99;100.00
86104;BME280;76727;51.216;17.394;2024-02-23T03:00:41;97471.56;;;7.98;100.00
86104;BME280;76727;51.216;17.394;2024-02-23T03:03:48;97470.09;;;8.08;100.00
86104;BME280;76727;51.216;17.394;2024-02-23T03:06:50;97468.13;;;7.97;100.00
86104;BME280;76727;51.216;17.394;2024-02-23T03:09:52;97473.84;;;8.04;100.00
86104;BME280;76727;51.216;17.394;2024-02-23T03:12:53;97466.72;;;7.91;100.00
86104;BME280;76727;51.216;17.394;2024-02-23T03:15:55;97479.88;;;7.90;100.00
86104;BME280;76727;51.216;17.394;2024-02-23T03:18:58;97476.78;;;7.83;100.00
86104;BME280;76727;51.216;17.394;2024-02-23T03:21:59;97486.78;;;7.76;100.00
86104;BME280;76727;51.216;17.394;2024-02-23T03:25:01;97483.75;;;7.99;100.00
86104;BME280;76727;51.216;17.394;2024-02-23T03:28:03;97485.63;;;7.97;100.00
86104;BME280;76727;51.216;17.394;2024-02-23T03:31:04;97490.38;;;7.90;100.00
86104;BME280;76727;51.216;17.394;2024-02-23T03:34:07;97501.66;;;7.76;100.00
86104;BME280;76727;51.216;17.394;2024-02-23T03:37:09;97510.13;;;7.81;100.00
86104;BME280;76727;51.216;17.394;2024-02-23T03:40:10;97522.13;;;7.85;100.00
86104;BME280;76727;51.216;17.394;2024-02-23T03:43:12;97522.94;;;7.86;100.00
86104;BME280;76727;51.216;17.394;2024-02-23T03:46:14;97528.03;;;7.89;100.00
86104;BME280;76727;51.216;17.394;2024-02-23T03:49:17;97548.25;;;7.87;100.00
86104;BME280;76727;51.216;17.394;2024-02-23T03:52:18;97546.06;;;7.79;100.00
86104;BME280;76727;51.216;17.394;2024-02-23T03:55:21;97556.88;;;7.89;100.00
86104;BME280;76727;51.216;17.394;2024-02-23T03:58:24;97567.59;;;7.84;100.00
86104;BME280;76727;51.216;17.394;2024-02-23T04:01:27;97557.91;;;7.86;100.00
86104;BME280;76727;51.216;17.394;2024-02-23T04:04:32;97570.09;;;8.02;100.00
86104;BME280;76727;51.216;17.394;2024-02-23T04:07:33;97561.72;;;8.11;100.00
86104;BME280;76727;51.216;17.394;2024-02-23T04:10:35;97570.19;;;8.31;100.00
86104;BME280;76727;51.216;17.394;2024-02-23T04:13:36;97580.66;;;8.16;100.00
86104;BME280;76727;51.216;17.394;2024-02-23T04:16:37;97584.06;;;8.02;100.00
86104;BME280;76727;51.216;17.394;2024-02-23T04:19:41;97587.66;;;7.85;100.00
86104;BME280;76727;51.216;17.394;2024-02-23T04:22:44;97592.22;;;7.82;100.00
86104;BME280;76727;51.216;17.394;2024-02-23T04:25:46;97593.41;;;7.76;100.00
86104;BME280;76727;51.216;17.394;2024-02-23T04:28:48;97602.56;;;7.69;100.00
86104;BME280;76727;51.216;17.394;2024-02-23T04:31:49;97604.81;;;7.75;100.00
86104;BME280;76727;51.216;17.394;2024-02-23T04:34:53;97609.06;;;7.78;100.00
86104;BME280;76727;51.216;17.394;2024-02-23T04:37:54;97588.88;;;7.64;100.00
86104;BME280;76727;51.216;17.394;2024-02-23T04:40:55;97609.75;;;7.81;100.00
86104;BME280;76727;51.216;17.394;2024-02-23T04:43:56;97600.59;;;7.72;100.00
86104;BME280;76727;51.216;17.394;2024-02-23T04:46:58;97604.41;;;7.51;100.00
86104;BME280;76727;51.216;17.394;2024-02-23T04:50:01;97606.53;;;7.76;100.00
86104;BME280;76727;51.216;17.394;2024-02-23T04:53:03;97608.53;;;8.03;100.00
86104;BME280;76727;51.216;17.394;2024-02-23T04:56:05;97609.84;;;7.80;100.00
86104;BME280;76727;51.216;17.394;2024-02-23T04:59:07;97618.19;;;7.70;100.00
86104;BME280;76727;51.216;17.394;2024-02-23T05:02:08;97613.75;;;7.56;100.00
86104;BME280;76727;51.216;17.394;2024-02-23T05:05:11;97608.88;;;7.33;100.00
86104;BME280;76727;51.216;17.394;2024-02-23T05:08:12;97621.06;;;7.34;100.00
86104;BME280;76727;51.216;17.394;2024-02-23T05:11:14;97628.63;;;7.22;100.00
86104;BME280;76727;51.216;17.394;2024-02-23T05:14:16;97631.25;;;7.22;100.00
86104;BME280;76727;51.216;17.394;2024-02-23T05:17:18;97639.63;;;7.29;100.00
86104;BME280;76727;51.216;17.394;2024-02-23T05:20:22;97637.59;;;7.18;100.00
86104;BME280;76727;51.216;17.394;2024-02-23T05:23:24;97652.47;;;7.18;100.00
86104;BME280;76727;51.216;17.394;2024-02-23T05:26:25;97663.56;;;7.23;100.00
86104;BME280;76727;51.216;17.394;2024-02-23T05:29:26;97670.72;;;7.19;100.00
86104;BME280;76727;51.216;17.394;2024-02-23T05:32:27;97673.94;;;7.24;100.00
86104;BME280;76727;51.216;17.394;2024-02-23T05:35:30;97670.31;;;7.27;100.00
86104;BME280;76727;51.216;17.394;2024-02-23T05:38:32;97682.50;;;7.28;100.00
86104;BME280;76727;51.216;17.394;2024-02-23T05:41:34;97691.19;;;7.29;100.00
86104;BME280;76727;51.216;17.394;2024-02-23T05:44:35;97683.59;;;7.40;100.00
86104;BME280;76727;51.216;17.394;2024-02-23T05:47:37;97692.69;;;7.66;100.00
86104;BME280;76727;51.216;17.394;2024-02-23T05:50:40;97701.06;;;7.57;100.00
86104;BME280;76727;51.216;17.394;2024-02-23T05:53:42;97705.69;;;7.52;100.00
86104;BME280;76727;51.216;17.394;2024-02-23T05:56:44;97716.44;;;7.47;100.00
86104;BME280;76727;51.216;17.394;2024-02-23T05:59:46;97710.25;;;7.64;100.00
86104;BME280;76727;51.216;17.394;2024-02-23T06:02:48;97726.94;;;7.63;100.00
86104;BME280;76727;51.216;17.394;2024-02-23T06:05:53;97723.06;;;7.70;100.00
86104;BME280;76727;51.216;17.394;2024-02-23T06:08:55;97728.13;;;7.89;100.00
86104;BME280;76727;51.216;17.394;2024-02-23T06:11:57;97732.19;;;7.95;100.00
86104;BME280;76727;51.216;17.394;2024-02-23T06:14:59;97735.16;;;8.05;100.00
86104;BME280;76727;51.216;17.394;2024-02-23T06:18:03;97738.09;;;8.31;100.00
86104;BME280;76727;51.216;17.394;2024-02-23T06:21:12;97746.34;;;8.24;100.00
86104;BME280;76727;51.216;17.394;2024-02-23T06:24:13;97746.44;;;8.23;100.00
86104;BME280;76727;51.216;17.394;2024-02-23T06:27:14;97761.22;;;8.24;100.00
86104;BME280;76727;51.216;17.394;2024-02-23T06:30:16;97766.22;;;8.29;100.00
86104;BME280;76727;51.216;17.394;2024-02-23T06:33:17;97765.06;;;8.50;100.00
86104;BME280;76727;51.216;17.394;2024-02-23T06:36:20;97765.78;;;8.52;100.00
86104;BME280;76727;51.216;17.394;2024-02-23T06:39:20;97779.28;;;8.46;100.00
86104;BME280;76727;51.216;17.394;2024-02-23T06:42:21;97779.97;;;8.50;100.00
86104;BME280;76727;51.216;17.394;2024-02-23T06:45:25;97782.13;;;8.57;100.00
86104;BME280;76727;51.216;17.394;2024-02-23T06:48:26;97794.00;;;8.49;100.00
86104;BME280;76727;51.216;17.394;2024-02-23T06:51:29;97797.75;;;8.61;100.00
86104;BME280;76727;51.216;17.394;2024-02-23T06:54:32;97800.69;;;8.70;100.00
86104;BME280;76727;51.216;17.394;2024-02-23T06:57:32;97798.06;;;8.70;100.00
86104;BME280;76727;51.216;17.394;2024-02-23T07:00:34;97809.72;;;8.81;100.00
86104;BME280;76727;51.216;17.394;2024-02-23T07:03:35;97810.97;;;8.89;100.00
86104;BME280;76727;51.216;17.394;2024-02-23T07:06:38;97810.44;;;8.99;100.00
86104;BME280;76727;51.216;17.394;2024-02-23T07:09:39;97810.25;;;9.02;100.00
86104;BME280;76727;51.216;17.394;2024-02-23T07:12:40;97808.63;;;9.15;100.00
86104;BME280;76727;51.216;17.394;2024-02-23T07:15:42;97833.19;;;9.14;100.00
86104;BME280;76727;51.216;17.394;2024-02-23T07:18:43;97828.25;;;9.24;100.00
86104;BME280;76727;51.216;17.394;2024-02-23T07:21:47;97831.19;;;9.34;100.00
86104;BME280;76727;51.216;17.394;2024-02-23T07:24:49;97829.13;;;9.39;100.00
86104;BME280;76727;51.216;17.394;2024-02-23T07:27:51;97838.31;;;9.32;100.00
86104;BME280;76727;51.216;17.394;2024-02-23T07:30:53;97841.22;;;9.27;100.00
86104;BME280;76727;51.216;17.394;2024-02-23T07:33:53;97824.91;;;9.06;100.00
86104;BME280;76727;51.216;17.394;2024-02-23T07:36:57;97846.78;;;9.37;100.00
86104;BME280;76727;51.216;17.394;2024-02-23T07:39:59;97847.56;;;9.53;100.00
86104;BME280;76727;51.216;17.394;2024-02-23T07:43:01;97849.22;;;9.40;100.00
86104;BME280;76727;51.216;17.394;2024-02-23T07:46:03;97854.47;;;9.40;100.00
86104;BME280;76727;51.216;17.394;2024-02-23T07:49:05;97864.25;;;9.38;100.00
86104;BME280;76727;51.216;17.394;2024-02-23T07:52:08;97861.44;;;9.41;100.00
86104;BME280;76727;51.216;17.394;2024-02-23T07:55:09;97866.28;;;9.33;100.00
86104;BME280;76727;51.216;17.394;2024-02-23T07:58:11;97865.75;;;9.42;100.00
86104;BME280;76727;51.216;17.394;2024-02-23T08:01:15;97869.22;;;9.42;100.00
86104;BME280;76727;51.216;17.394;2024-02-23T08:04:17;97856.72;;;9.32;100.00
86104;BME280;76727;51.216;17.394;2024-02-23T08:07:21;97882.56;;;9.54;100.00
86104;BME280;76727;51.216;17.394;2024-02-23T08:10:22;97890.50;;;9.68;100.00
86104;BME280;76727;51.216;17.394;2024-02-23T08:13:23;97893.59;;;9.60;100.00
86104;BME280;76727;51.216;17.394;2024-02-23T08:16:24;97904.13;;;9.75;100.00
86104;BME280;76727;51.216;17.394;2024-02-23T08:19:26;97908.66;;;9.87;99.20
86104;BME280;76727;51.216;17.394;2024-02-23T08:22:29;97908.66;;;9.87;97.48
86104;BME280;76727;51.216;17.394;2024-02-23T08:25:31;97914.63;;;10.05;97.92
86104;BME280;76727;51.216;17.394;2024-02-23T08:28:33;97917.63;;;10.14;97.72
86104;BME280;76727;51.216;17.394;2024-02-23T08:31:34;97926.84;;;10.21;97.61
86104;BME280;76727;51.216;17.394;2024-02-23T08:34:35;97921.94;;;10.29;97.18
86104;BME280;76727;51.216;17.394;2024-02-23T08:37:39;97930.16;;;10.53;95.79
86104;BME280;76727;51.216;17.394;2024-02-23T08:40:40;97928.44;;;10.81;94.80
86104;BME280;76727;51.216;17.394;2024-02-23T08:43:42;97932.06;;;10.93;93.60
86104;BME280;76727;51.216;17.394;2024-02-23T08:46:44;97942.09;;;11.15;92.24
86104;BME280;76727;51.216;17.394;2024-02-23T08:49:46;97953.03;;;11.09;91.62
86104;BME280;76727;51.216;17.394;2024-02-23T08:52:49;97956.34;;;10.98;92.16
86104;BME280;76727;51.216;17.394;2024-02-23T08:55:51;97946.47;;;11.02;92.04
86104;BME280;76727;51.216;17.394;2024-02-23T08:58:52;97961.88;;;11.08;91.39
86104;BME280;76727;51.216;17.394;2024-02-23T09:01:54;97973.19;;;10.95;92.55
86104;BME280;76727;51.216;17.394;2024-02-23T09:04:55;97980.47;;;10.92;92.92
86104;BME280;76727;51.216;17.394;2024-02-23T09:07:58;97990.91;;;10.93;92.73
86104;BME280;76727;51.216;17.394;2024-02-23T09:10:59;97998.16;;;10.90;91.71
86104;BME280;76727;51.216;17.394;2024-02-23T09:14:01;97992.88;;;10.75;92.38
86104;BME280;76727;51.216;17.394;2024-02-23T09:17:03;97999.09;;;10.60;93.45
86104;BME280;76727;51.216;17.394;2024-02-23T09:20:05;98011.88;;;10.52;94.52
86104;BME280;76727;51.216;17.394;2024-02-23T09:23:08;98008.69;;;10.47;95.36
86104;BME280;76727;51.216;17.394;2024-02-23T09:26:09;98010.47;;;10.46;90.70
86104;BME280;76727;51.216;17.394;2024-02-23T09:29:10;98014.34;;;10.55;87.82
86104;BME280;76727;51.216;17.394;2024-02-23T09:32:11;98023.16;;;10.54;83.94
86104;BME280;76727;51.216;17.394;2024-02-23T09:35:13;98027.59;;;10.53;82.15
86104;BME280;76727;51.216;17.394;2024-02-23T09:38:16;98039.56;;;10.73;80.06
86104;BME280;76727;51.216;17.394;2024-02-23T09:41:20;98044.38;;;10.81;79.05
86104;BME280;76727;51.216;17.394;2024-02-23T09:44:21;98050.94;;;10.88;77.27
86104;BME280;76727;51.216;17.394;2024-02-23T09:47:23;98049.72;;;10.94;76.90
86104;BME280;76727;51.216;17.394;2024-02-23T09:50:24;98060.34;;;11.07;75.15
86104;BME280;76727;51.216;17.394;2024-02-23T09:53:28;98062.00;;;11.22;73.50
86104;BME280;76727;51.216;17.394;2024-02-23T09:56:29;98061.44;;;11.32;72.10
86104;BME280;76727;51.216;17.394;2024-02-23T09:59:31;98082.91;;;11.40;70.49
86104;BME280;76727;51.216;17.394;2024-02-23T10:02:32;98077.97;;;11.48;68.23
86104;BME280;76727;51.216;17.394;2024-02-23T10:05:34;98079.94;;;11.59;68.48
86104;BME280;76727;51.216;17.394;2024-02-23T10:08:36;98086.81;;;11.47;68.99
86104;BME280;76727;51.216;17.394;2024-02-23T10:11:37;98085.31;;;11.57;69.92
86104;BME280;76727;51.216;17.394;2024-02-23T10:14:41;98096.09;;;11.67;69.58
86104;BME280;76727;51.216;17.394;2024-02-23T10:17:42;98085.66;;;11.66;69.20
86104;BME280;76727;51.216;17.394;2024-02-23T10:20:43;98097.94;;;11.79;69.83
86104;BME280;76727;51.216;17.394;2024-02-23T10:23:47;98092.19;;;11.87;66.43
86104;BME280;76727;51.216;17.394;2024-02-23T10:26:49;98105.50;;;11.86;65.88
86104;BME280;76727;51.216;17.394;2024-02-23T10:29:50;98116.50;;;11.92;67.64
86104;BME280;76727;51.216;17.394;2024-02-23T10:32:55;98125.00;;;11.98;68.37
86104;BME280;76727;51.216;17.394;2024-02-23T10:35:57;98116.66;;;12.04;68.10
86104;BME280;76727;51.216;17.394;2024-02-23T10:39:02;98123.09;;;12.00;67.97
86104;BME280;76727;51.216;17.394;2024-02-23T10:42:08;98130.63;;;11.91;68.13
86104;BME280;76727;51.216;17.394;2024-02-23T10:45:10;98129.50;;;11.95;68.09
86104;BME280;76727;51.216;17.394;2024-02-23T10:48:12;98111.69;;;11.99;67.30
86104;BME280;76727;51.216;17.394;2024-02-23T10:51:14;98128.53;;;12.11;67.23
86104;BME280;76727;51.216;17.394;2024-02-23T10:54:19;98140.59;;;12.15;66.55
86104;BME280;76727;51.216;17.394;2024-02-23T10:57:21;98130.75;;;12.17;67.02
86104;BME280;76727;51.216;17.394;2024-02-23T11:00:23;98135.66;;;12.23;67.85
86104;BME280;76727;51.216;17.394;2024-02-23T11:03:25;98139.22;;;12.22;67.78
86104;BME280;76727;51.216;17.394;2024-02-23T11:06:27;98140.81;;;12.25;66.20
86104;BME280;76727;51.216;17.394;2024-02-23T11:09:31;98140.31;;;12.33;65.78
86104;BME280;76727;51.216;17.394;2024-02-23T11:12:34;98134.50;;;12.40;65.54
86104;BME280;76727;51.216;17.394;2024-02-23T11:15:41;98138.66;;;12.44;64.28
86104;BME280;76727;51.216;17.394;2024-02-23T11:18:42;98139.09;;;12.51;64.27
86104;BME280;76727;51.216;17.394;2024-02-23T11:21:52;98132.97;;;12.51;63.14
86104;BME280;76727;51.216;17.394;2024-02-23T11:25:00;98124.53;;;12.58;65.62
86104;BME280;76727;51.216;17.394;2024-02-23T11:28:01;98127.28;;;12.70;63.68
86104;BME280;76727;51.216;17.394;2024-02-23T11:31:11;98130.56;;;12.86;63.65
86104;BME280;76727;51.216;17.394;2024-02-23T11:34:13;98132.59;;;13.08;63.24
86104;BME280;76727;51.216;17.394;2024-02-23T11:37:21;98131.94;;;13.18;60.99
86104;BME280;76727;51.216;17.394;2024-02-23T11:40:25;98122.94;;;13.33;59.88
86104;BME280;76727;51.216;17.394;2024-02-23T11:43:26;98109.94;;;13.43;58.29
86104;BME280;76727;51.216;17.394;2024-02-23T11:46:27;98121.88;;;13.48;58.25
86104;BME280;76727;51.216;17.394;2024-02-23T11:49:29;98124.28;;;13.52;58.36
86104;BME280;76727;51.216;17.394;2024-02-23T11:52:31;98118.63;;;13.45;59.60
86104;BME280;76727;51.216;17.394;2024-02-23T11:55:35;98126.41;;;13.34;58.47
86104;BME280;76727;51.216;17.394;2024-02-23T11:58:37;98122.94;;;13.20;59.84
86104;BME280;76727;51.216;17.394;2024-02-23T12:01:39;98119.75;;;13.15;61.15
86104;BME280;76727;51.216;17.394;2024-02-23T12:04:41;98119.69;;;13.04;60.26
86104;BME280;76727;51.216;17.394;2024-02-23T12:07:43;98125.06;;;12.89;59.42
86104;BME280;76727;51.216;17.394;2024-02-23T12:10:46;98124.97;;;12.78;62.27
86104;BME280;76727;51.216;17.394;2024-02-23T12:13:48;98139.78;;;12.80;61.48
86104;BME280;76727;51.216;17.394;2024-02-23T12:16:51;98153.38;;;12.74;61.34
86104;BME280;76727;51.216;17.394;2024-02-23T12:19:58;98147.78;;;12.66;61.68
86104;BME280;76727;51.216;17.394;2024-02-23T12:23:00;98158.22;;;12.68;61.54
86104;BME280;76727;51.216;17.394;2024-02-23T12:26:04;98153.06;;;12.53;59.48
86104;BME280;76727;51.216;17.394;2024-02-23T12:29:06;98167.47;;;12.35;61.17
86104;BME280;76727;51.216;17.394;2024-02-23T12:32:07;98162.44;;;12.17;62.49
86104;BME280;76727;51.216;17.394;2024-02-23T12:35:10;98177.63;;;12.13;62.21
86104;BME280;76727;51.216;17.394;2024-02-23T12:38:12;98158.56;;;11.95;62.53
86104;BME280;76727;51.216;17.394;2024-02-23T12:41:14;98184.34;;;11.90;63.37
86104;BME280;76727;51.216;17.394;2024-02-23T12:44:16;98192.59;;;11.71;63.39
86104;BME280;76727;51.216;17.394;2024-02-23T12:47:17;98200.25;;;11.61;65.27
86104;BME280;76727;51.216;17.394;2024-02-23T12:50:18;98193.56;;;11.56;65.05
86104;BME280;76727;51.216;17.394;2024-02-23T12:53:33;98202.13;;;11.45;63.21
86104;BME280;76727;51.216;17.394;2024-02-23T12:56:37;98209.28;;;11.43;64.70
86104;BME280;76727;51.216;17.394;2024-02-23T12:59:38;98206.94;;;11.38;65.37
86104;BME280;76727;51.216;17.394;2024-02-23T13:02:40;98219.81;;;11.43;65.26
86104;BME280;76727;51.216;17.394;2024-02-23T13:05:44;98213.34;;;11.34;64.92
86104;BME280;76727;51.216;17.394;2024-02-23T13:08:45;98213.59;;;11.29;65.23
86104;BME280;76727;51.216;17.394;2024-02-23T13:11:48;98220.47;;;11.32;66.15
86104;BME280;76727;51.216;17.394;2024-02-23T13:14:50;98227.63;;;11.16;66.89
86104;BME280;76727;51.216;17.394;2024-02-23T13:17:52;98231.38;;;11.11;67.58
86104;BME280;76727;51.216;17.394;2024-02-23T13:20:54;98229.38;;;11.01;68.81
86104;BME280;76727;51.216;17.394;2024-02-23T13:23:55;98237.25;;;10.86;70.65
86104;BME280;76727;51.216;17.394;2024-02-23T13:26:58;98235.22;;;10.75;72.61
86104;BME280;76727;51.216;17.394;2024-02-23T13:30:00;98242.34;;;10.59;73.94
86104;BME280;76727;51.216;17.394;2024-02-23T13:33:03;98247.75;;;10.72;76.14
86104;BME280;76727;51.216;17.394;2024-02-23T13:36:05;98244.47;;;10.52;77.27
86104;BME280;76727;51.216;17.394;2024-02-23T13:39:06;98245.47;;;10.50;78.54
86104;BME280;76727;51.216;17.394;2024-02-23T13:42:08;98248.56;;;10.42;79.43
86104;BME280;76727;51.216;17.394;2024-02-23T13:45:09;98254.84;;;10.39;79.50
86104;BME280;76727;51.216;17.394;2024-02-23T13:48:11;98256.88;;;10.18;79.66
86104;BME280;76727;51.216;17.394;2024-02-23T13:51:12;98259.69;;;10.31;80.38
86104;BME280;76727;51.216;17.394;2024-02-23T13:54:13;98261.78;;;9.92;79.27
86104;BME280;76727;51.216;17.394;2024-02-23T13:57:15;98266.44;;;9.87;79.42
86104;BME280;76727;51.216;17.394;2024-02-23T14:00:19;98258.06;;;10.13;81.68
86104;BME280;76727;51.216;17.394;2024-02-23T14:03:21;98259.81;;;9.80;83.83
86104;BME280;76727;51.216;17.394;2024-02-23T14:06:22;98262.53;;;9.78;86.10
86104;BME280;76727;51.216;17.394;2024-02-23T14:09:23;98272.09;;;9.64;87.61
86104;BME280;76727;51.216;17.394;2024-02-23T14:12:27;98269.13;;;9.70;88.46
86104;BME280;76727;51.216;17.394;2024-02-23T14:15:28;98264.50;;;9.57;88.08
86104;BME280;76727;51.216;17.394;2024-02-23T14:18:30;98268.44;;;9.33;90.34
86104;BME280;76727;51.216;17.394;2024-02-23T14:21:31;98266.91;;;9.11;90.16
86104;BME280;76727;51.216;17.394;2024-02-23T14:24:33;98271.16;;;8.96;92.07
86104;BME280;76727;51.216;17.394;2024-02-23T14:27:35;98271.63;;;8.87;92.81
86104;BME280;76727;51.216;17.394;2024-02-23T14:30:37;98268.59;;;8.77;93.26
86104;BME280;76727;51.216;17.394;2024-02-23T14:33:39;98263.31;;;8.59;94.28
86104;BME280;76727;51.216;17.394;2024-02-23T14:36:40;98270.81;;;8.50;94.90
86104;BME280;76727;51.216;17.394;2024-02-23T14:39:41;98269.78;;;8.52;96.29
86104;BME280;76727;51.216;17.394;2024-02-23T14:42:43;98262.09;;;8.11;95.38
86104;BME280;76727;51.216;17.394;2024-02-23T14:45:44;98261.78;;;7.98;95.61
86104;BME280;76727;51.216;17.394;2024-02-23T14:48:46;98244.50;;;7.75;97.68
86104;BME280;76727;51.216;17.394;2024-02-23T14:51:48;98239.56;;;7.69;98.93
86104;BME280;76727;51.216;17.394;2024-02-23T14:54:49;98250.88;;;7.50;100.00
86104;BME280;76727;51.216;17.394;2024-02-23T14:57:51;98252.06;;;7.43;100.00
86104;BME280;76727;51.216;17.394;2024-02-23T15:00:53;98249.53;;;7.61;100.00
86104;BME280;76727;51.216;17.394;2024-02-23T15:03:54;98260.38;;;7.72;98.80
86104;BME280;76727;51.216;17.394;2024-02-23T15:06:56;98263.16;;;7.69;99.74
86104;BME280;76727;51.216;17.394;2024-02-23T15:09:58;98271.44;;;7.59;99.50
86104;BME280;76727;51.216;17.394;2024-02-23T15:13:01;98277.91;;;7.90;97.44
86104;BME280;76727;51.216;17.394;2024-02-23T15:16:03;98291.78;;;7.92;95.82
86104;BME280;76727;51.216;17.394;2024-02-23T15:19:05;98290.94;;;7.73;97.00
86104;BME280;76727;51.216;17.394;2024-02-23T15:22:07;98299.44;;;7.78;98.12
86104;BME280;76727;51.216;17.394;2024-02-23T15:25:09;98296.75;;;7.80;96.77
86104;BME280;76727;51.216;17.394;2024-02-23T15:28:11;98309.13;;;7.76;97.31
86104;BME280;76727;51.216;17.394;2024-02-23T15:31:13;98312.75;;;7.73;97.23
86104;BME280;76727;51.216;17.394;2024-02-23T15:34:15;98319.47;;;7.79;96.79
86104;BME280;76727;51.216;17.394;2024-02-23T15:37:16;98301.31;;;7.55;98.54
86104;BME280;76727;51.216;17.394;2024-02-23T15:40:17;98314.34;;;7.57;98.79
86104;BME280;76727;51.216;17.394;2024-02-23T15:43:20;98306.34;;;7.60;98.15
86104;BME280;76727;51.216;17.394;2024-02-23T15:46:22;98304.16;;;7.10;100.00
86104;BME280;76727;51.216;17.394;2024-02-23T15:49:24;98317.38;;;7.27;100.00
86104;BME280;76727;51.216;17.394;2024-02-23T15:52:25;98314.88;;;7.03;100.00